createdAt,value
2024-05-09T00:00:15.505Z,95.66
2024-05-09T00:01:26.517Z,95.43
2024-05-09T00:02:29.177Z,95.61
2024-05-09T00:03:34.622Z,95.40
2024-05-09T00:04:37.479Z,95.41
2024-05-09T00:05:44.323Z,95.64
2024-05-09T00:06:47.167Z,95.13
2024-05-09T00:07:52.422Z,95.78
2024-05-09T00:08:55.092Z,95.45
2024-05-09T00:10:00.316Z,95.06
2024-05-09T00:11:03.077Z,95.47
2024-05-09T00:12:09.039Z,95.29
2024-05-09T00:13:11.779Z,95.46
2024-05-09T00:14:17.339Z,95.57
2024-05-09T00:15:20.007Z,95.24
2024-05-09T00:16:27.852Z,95.53
2024-05-09T00:17:30.681Z,94.85
2024-05-09T00:18:36.141Z,95.49
2024-05-09T00:19:38.959Z,95.09
2024-05-09T00:20:44.386Z,95.57
2024-05-09T00:21:47.016Z,95.54
2024-05-09T00:22:52.732Z,95.20
2024-05-09T00:23:55.634Z,95.31
2024-05-09T00:25:00.886Z,95.26
2024-05-09T00:26:03.586Z,94.77
2024-05-09T00:27:11.287Z,94.76
2024-05-09T00:28:14.571Z,95.07
2024-05-09T00:29:19.843Z,95.27
2024-05-09T00:30:31.575Z,94.80
2024-05-09T00:31:43.027Z,94.64
2024-05-09T00:32:45.773Z,94.73
2024-05-09T00:33:51.224Z,94.65
2024-05-09T00:34:53.962Z,94.85
2024-05-09T00:35:59.190Z,95.02
2024-05-09T00:37:01.859Z,94.97
2024-05-09T00:38:07.572Z,95.39
2024-05-09T00:39:10.319Z,95.36
2024-05-09T00:40:22.962Z,95.39
2024-05-09T00:41:36.293Z,95.07
2024-05-09T00:42:39.177Z,95.17
2024-05-09T00:43:44.538Z,95.48
2024-05-09T00:44:47.155Z,95.46
2024-05-09T00:45:53.716Z,95.84
2024-05-09T00:46:59.218Z,95.95
2024-05-09T00:48:09.425Z,95.67
2024-05-09T00:49:13.788Z,95.95
2024-05-09T00:50:25.899Z,95.05
2024-05-09T00:51:36.769Z,95.69
2024-05-09T00:52:42.874Z,95.38
2024-05-09T00:53:46.449Z,95.86
2024-05-09T00:54:51.712Z,95.62
2024-05-09T00:55:57.645Z,95.90
2024-05-09T00:57:03.556Z,95.32
2024-05-09T00:58:08.038Z,95.86
2024-05-09T00:59:13.303Z,95.58
2024-05-09T01:00:26.083Z,95.69
2024-05-09T01:01:36.671Z,95.99
2024-05-09T01:02:42.030Z,96.00
2024-05-09T01:03:49.571Z,95.69
2024-05-09T01:04:53.633Z,95.54
2024-05-09T01:05:58.957Z,95.60
2024-05-09T01:07:01.653Z,95.53
2024-05-09T01:08:07.496Z,95.72
2024-05-09T01:09:10.393Z,95.68
2024-05-09T01:10:17.448Z,95.53
2024-05-09T01:11:36.798Z,95.72
2024-05-09T01:12:39.478Z,95.94
2024-05-09T01:13:44.972Z,95.71
2024-05-09T01:14:47.603Z,95.77
2024-05-09T01:15:54.028Z,95.99
2024-05-09T01:16:56.827Z,95.73
2024-05-09T01:18:07.640Z,95.95
2024-05-09T01:19:20.614Z,95.80
2024-05-09T01:20:36.875Z,95.53
2024-05-09T01:21:44.781Z,96.16
2024-05-09T01:22:50.908Z,95.98
2024-05-09T01:23:56.184Z,95.81
2024-05-09T01:25:01.416Z,95.95
2024-05-09T01:26:04.254Z,95.97
2024-05-09T01:27:09.497Z,95.75
2024-05-09T01:28:12.436Z,95.94
2024-05-09T01:29:17.952Z,96.24
2024-05-09T01:30:24.562Z,96.02
2024-05-09T01:31:36.596Z,96.03
2024-05-09T01:32:39.321Z,95.79
2024-05-09T01:33:45.167Z,95.97
2024-05-09T01:34:47.927Z,95.75
2024-05-09T01:35:53.272Z,95.66
2024-05-09T01:36:56.282Z,95.24
2024-05-09T01:38:01.588Z,95.61
2024-05-09T01:39:06.811Z,95.53
2024-05-09T01:40:18.414Z,95.75
2024-05-09T01:41:25.071Z,95.96
2024-05-09T01:42:30.348Z,95.60
2024-05-09T01:43:33.064Z,96.04
2024-05-09T01:44:38.388Z,95.97
2024-05-09T01:45:41.589Z,95.58
2024-05-09T01:46:46.980Z,96.01
2024-05-09T01:47:49.781Z,95.67
2024-05-09T01:48:55.208Z,95.81
2024-05-09T01:49:57.875Z,96.03
2024-05-09T01:51:03.207Z,96.12
2024-05-09T01:52:05.893Z,95.80
2024-05-09T01:53:11.713Z,96.06
2024-05-09T01:54:17.251Z,95.82
2024-05-09T01:55:22.653Z,95.60
2024-05-09T01:56:27.396Z,96.13
2024-05-09T01:57:33.365Z,95.91
2024-05-09T01:58:36.902Z,95.65
2024-05-09T01:59:42.106Z,96.00
2024-05-09T02:00:45.017Z,95.80
2024-05-09T02:01:56.732Z,95.95
2024-05-09T02:03:00.666Z,96.11
2024-05-09T02:04:06.387Z,95.85
2024-05-09T02:05:09.543Z,95.90
2024-05-09T02:06:15.023Z,95.81
2024-05-09T02:07:18.075Z,95.69
2024-05-09T02:08:24.546Z,95.93
2024-05-09T02:09:29.865Z,96.08
2024-05-09T02:10:35.108Z,95.87
2024-05-09T02:11:41.782Z,95.61
2024-05-09T02:12:47.119Z,95.83
2024-05-09T02:13:49.746Z,95.91
2024-05-09T02:14:55.065Z,96.20
2024-05-09T02:15:57.708Z,95.82
2024-05-09T02:17:02.966Z,96.05
2024-05-09T02:18:06.360Z,95.96
2024-05-09T02:19:11.900Z,96.04
2024-05-09T02:20:22.561Z,96.02
2024-05-09T02:21:34.251Z,95.73
2024-05-09T02:22:36.844Z,95.86
2024-05-09T02:23:42.081Z,95.61
2024-05-09T02:24:47.357Z,95.75
2024-05-09T02:25:52.589Z,95.71
2024-05-09T02:26:55.206Z,95.58
2024-05-09T02:28:00.634Z,95.95
2024-05-09T02:29:03.361Z,95.88
2024-05-09T02:30:18.570Z,95.76
2024-05-09T02:31:28.510Z,95.63
2024-05-09T02:32:33.859Z,95.83
2024-05-09T02:33:36.764Z,95.72
2024-05-09T02:34:39.507Z,96.02
2024-05-09T02:35:45.597Z,96.40
2024-05-09T02:36:48.245Z,95.74
2024-05-09T02:37:50.880Z,95.85
2024-05-09T02:38:56.070Z,95.70
2024-05-09T02:40:01.323Z,95.80
2024-05-09T02:41:04.257Z,96.28
2024-05-09T02:42:09.442Z,96.08
2024-05-09T02:43:13.062Z,95.94
2024-05-09T02:44:15.653Z,95.56
2024-05-09T02:45:18.322Z,95.85
2024-05-09T02:46:20.997Z,95.61
2024-05-09T02:47:26.624Z,96.01
2024-05-09T02:48:29.541Z,95.90
2024-05-09T02:49:32.215Z,96.25
2024-05-09T02:50:39.700Z,96.14
2024-05-09T02:51:42.894Z,95.79
2024-05-09T02:52:45.570Z,96.14
2024-05-09T02:53:48.184Z,95.76
2024-05-09T02:54:51.058Z,96.11
2024-05-09T02:55:59.069Z,95.98
2024-05-09T02:57:01.720Z,96.27
2024-05-09T02:58:04.739Z,96.45
2024-05-09T02:59:10.262Z,96.41
2024-05-09T03:00:19.014Z,96.08
2024-05-09T03:01:28.599Z,96.21
2024-05-09T03:02:34.202Z,96.02
2024-05-09T03:03:37.237Z,95.83
2024-05-09T03:04:40.124Z,95.76
2024-05-09T03:05:43.142Z,95.98
2024-05-09T03:06:48.563Z,96.22
2024-05-09T03:07:51.215Z,96.77
2024-05-09T03:08:53.840Z,96.43
2024-05-09T03:09:56.422Z,96.23
2024-05-09T03:11:04.355Z,96.34
2024-05-09T03:12:08.445Z,96.76
2024-05-09T03:13:14.156Z,96.24
2024-05-09T03:14:18.173Z,96.43
2024-05-09T03:15:24.499Z,96.57
2024-05-09T03:16:27.271Z,96.13
2024-05-09T03:17:30.037Z,96.25
2024-05-09T03:18:35.500Z,96.55
2024-05-09T03:19:38.375Z,96.28
2024-05-09T03:20:41.180Z,96.21
2024-05-09T03:21:43.798Z,96.35
2024-05-09T03:22:49.036Z,96.43
2024-05-09T03:23:51.680Z,96.27
2024-05-09T03:24:54.489Z,96.04
2024-05-09T03:25:57.217Z,96.43
2024-05-09T03:27:05.165Z,96.53
2024-05-09T03:28:07.891Z,96.08
2024-05-09T03:29:10.667Z,96.38
2024-05-09T03:30:25.898Z,96.15
2024-05-09T03:31:38.332Z,96.46
2024-05-09T03:32:41.175Z,96.39
2024-05-09T03:33:44.025Z,96.33
2024-05-09T03:34:46.764Z,96.86
2024-05-09T03:35:51.980Z,96.33
2024-05-09T03:36:57.206Z,96.35
2024-05-09T03:37:59.841Z,96.49
2024-05-09T03:39:05.186Z,96.49
2024-05-09T03:40:14.453Z,96.23
2024-05-09T03:41:23.374Z,96.01
2024-05-09T03:42:28.864Z,96.47
2024-05-09T03:43:34.165Z,96.57
2024-05-09T03:44:36.794Z,96.00
2024-05-09T03:45:39.457Z,96.80
2024-05-09T03:46:44.824Z,96.41
2024-05-09T03:47:47.572Z,96.13
2024-05-09T03:48:50.271Z,96.35
2024-05-09T03:49:52.901Z,96.36
2024-05-09T03:50:58.175Z,96.10
2024-05-09T03:52:05.043Z,96.12
2024-05-09T03:53:11.632Z,96.04
2024-05-09T03:54:16.954Z,95.96
2024-05-09T03:55:19.552Z,96.08
2024-05-09T03:56:22.267Z,96.26
2024-05-09T03:57:24.882Z,96.14
2024-05-09T03:58:33.075Z,96.40
2024-05-09T03:59:36.895Z,96.04
2024-05-09T04:00:40.385Z,95.88
2024-05-09T04:01:43.211Z,96.08
2024-05-09T04:02:50.743Z,95.76
2024-05-09T04:03:53.518Z,95.91
2024-05-09T04:04:56.212Z,95.93
2024-05-09T04:05:59.135Z,96.20
2024-05-09T04:07:04.821Z,95.95
2024-05-09T04:08:07.937Z,95.96
2024-05-09T04:09:10.556Z,96.04
2024-05-09T04:10:21.133Z,95.99
2024-05-09T04:11:33.358Z,95.90
2024-05-09T04:12:36.365Z,96.09
2024-05-09T04:13:41.613Z,95.36
2024-05-09T04:14:44.172Z,95.86
2024-05-09T04:15:49.364Z,95.46
2024-05-09T04:16:52.301Z,95.22
2024-05-09T04:17:55.151Z,95.53
2024-05-09T04:19:00.631Z,95.68
2024-05-09T04:20:03.403Z,95.95
2024-05-09T04:21:07.048Z,95.98
2024-05-09T04:22:10.087Z,95.57
2024-05-09T04:23:16.530Z,95.62
2024-05-09T04:24:19.586Z,95.80
2024-05-09T04:25:22.202Z,95.65
2024-05-09T04:26:24.826Z,95.80
2024-05-09T04:27:30.045Z,95.40
2024-05-09T04:28:32.709Z,95.30
2024-05-09T04:29:38.053Z,95.41
2024-05-09T04:30:41.812Z,95.43
2024-05-09T04:31:47.801Z,95.25
2024-05-09T04:32:51.057Z,95.28
2024-05-09T04:33:53.892Z,95.02
2024-05-09T04:34:56.670Z,95.05
2024-05-09T04:35:59.274Z,95.08
2024-05-09T04:37:04.623Z,94.40
2024-05-09T04:38:07.265Z,94.68
2024-05-09T04:39:09.878Z,94.67
2024-05-09T04:40:23.988Z,94.36
2024-05-09T04:41:33.660Z,94.50
2024-05-09T04:42:36.381Z,94.24
2024-05-09T04:43:41.689Z,94.13
2024-05-09T04:44:47.018Z,93.74
2024-05-09T04:45:51.160Z,93.42
2024-05-09T04:46:53.758Z,94.10
2024-05-09T04:47:59.221Z,93.45
2024-05-09T04:49:02.228Z,93.80
2024-05-09T04:50:08.870Z,94.06
2024-05-09T04:51:14.079Z,93.70
2024-05-09T04:52:19.402Z,93.11
2024-05-09T04:53:22.021Z,93.28
2024-05-09T04:54:33.725Z,93.38
2024-05-09T04:55:39.600Z,93.40
2024-05-09T04:56:45.227Z,92.91
2024-05-09T04:57:48.126Z,93.59
2024-05-09T04:58:51.374Z,93.11
2024-05-09T04:59:56.527Z,93.67
2024-05-09T05:01:01.712Z,93.58
2024-05-09T05:02:04.659Z,93.49
2024-05-09T05:03:10.528Z,93.32
2024-05-09T05:04:15.235Z,93.69
2024-05-09T05:05:20.649Z,93.14
2024-05-09T05:06:23.971Z,93.04
2024-05-09T05:07:26.525Z,92.83
2024-05-09T05:08:32.038Z,92.53
2024-05-09T05:09:35.892Z,92.84
2024-05-09T05:10:39.125Z,92.43
2024-05-09T05:11:41.914Z,92.40
2024-05-09T05:13:03.147Z,91.78
2024-05-09T05:14:10.081Z,91.67
2024-05-09T05:15:15.526Z,91.35
2024-05-09T05:16:20.842Z,91.43
2024-05-09T05:17:23.562Z,91.34
2024-05-09T05:18:27.934Z,91.72
2024-05-09T05:19:31.170Z,91.53
2024-05-09T05:20:34.471Z,90.59
2024-05-09T05:21:39.802Z,90.78
2024-05-09T05:22:43.632Z,90.83
2024-05-09T05:23:46.252Z,91.00
2024-05-09T05:24:48.886Z,90.56
2024-05-09T05:25:55.948Z,90.48
2024-05-09T05:26:58.777Z,89.80
2024-05-09T05:28:01.326Z,89.98
2024-05-09T05:29:06.574Z,89.84
2024-05-09T05:30:17.506Z,90.22
2024-05-09T05:31:26.411Z,89.92
2024-05-09T05:32:29.182Z,88.92
2024-05-09T05:33:34.766Z,89.13
2024-05-09T05:34:37.468Z,88.77
2024-05-09T05:35:41.034Z,88.86
2024-05-09T05:36:46.286Z,88.66
2024-05-09T05:37:48.961Z,88.66
2024-05-09T05:38:52.236Z,88.40
2024-05-09T05:39:54.891Z,87.99
2024-05-09T05:41:00.188Z,87.93
2024-05-09T05:42:03.192Z,87.47
2024-05-09T05:43:06.256Z,86.95
2024-05-09T05:44:14.361Z,87.64
2024-05-09T05:45:17.240Z,87.17
2024-05-09T05:46:19.854Z,86.99
2024-05-09T05:47:25.225Z,87.79
2024-05-09T05:48:30.571Z,87.80
2024-05-09T05:49:33.350Z,87.47
2024-05-09T05:50:38.123Z,87.16
2024-05-09T05:51:41.434Z,87.38
2024-05-09T05:52:46.862Z,87.09
2024-05-09T05:53:49.611Z,87.08
2024-05-09T05:54:52.389Z,86.95
2024-05-09T05:55:55.166Z,86.17
2024-05-09T05:57:00.651Z,85.61
2024-05-09T05:58:03.815Z,84.79
2024-05-09T05:59:06.568Z,85.73
2024-05-09T06:00:15.230Z,85.25
2024-05-09T06:01:26.896Z,84.62
2024-05-09T06:02:33.009Z,84.34
2024-05-09T06:03:35.766Z,83.64
2024-05-09T06:04:41.087Z,83.34
2024-05-09T06:05:46.025Z,83.14
2024-05-09T06:06:49.546Z,82.86
2024-05-09T06:07:54.805Z,82.68
2024-05-09T06:08:57.425Z,81.70
2024-05-09T06:10:00.092Z,81.80
2024-05-09T06:11:03.668Z,82.29
2024-05-09T06:12:09.110Z,82.28
2024-05-09T06:13:14.087Z,82.57
2024-05-09T06:14:17.326Z,81.99
2024-05-09T06:15:19.979Z,80.97
2024-05-09T06:16:25.170Z,81.25
2024-05-09T06:17:27.894Z,80.92
2024-05-09T06:18:33.507Z,80.26
2024-05-09T06:19:36.482Z,80.63
2024-05-09T06:20:43.611Z,80.27
2024-05-09T06:21:46.878Z,79.29
2024-05-09T06:22:49.553Z,79.53
2024-05-09T06:23:53.466Z,79.08
2024-05-09T06:24:58.719Z,78.74
2024-05-09T06:26:01.383Z,79.15
2024-05-09T06:27:06.182Z,79.25
2024-05-09T06:28:11.667Z,78.63
2024-05-09T06:29:14.347Z,77.80
2024-05-09T06:30:25.450Z,78.34
2024-05-09T06:31:35.774Z,78.94
2024-05-09T06:32:38.583Z,78.81
2024-05-09T06:33:44.543Z,79.15
2024-05-09T06:34:47.951Z,79.17
2024-05-09T06:35:57.216Z,78.47
2024-05-09T06:37:00.028Z,78.02
2024-05-09T06:38:02.771Z,77.80
2024-05-09T06:39:05.653Z,77.83
2024-05-09T06:40:12.574Z,77.60
2024-05-09T06:41:17.319Z,76.22
2024-05-09T06:42:20.091Z,76.00
2024-05-09T06:43:22.846Z,75.12
2024-05-09T06:44:28.187Z,74.79
2024-05-09T06:45:30.907Z,74.25
2024-05-09T06:46:33.549Z,73.66
2024-05-09T06:47:38.960Z,74.02
2024-05-09T06:48:44.977Z,74.76
2024-05-09T06:49:47.741Z,74.83
2024-05-09T06:50:51.074Z,75.40
2024-05-09T06:51:56.292Z,75.27
2024-05-09T06:52:58.912Z,76.75
2024-05-09T06:54:01.673Z,76.28
2024-05-09T06:55:04.506Z,75.79
2024-05-09T06:56:10.710Z,75.13
2024-05-09T06:57:13.381Z,75.91
2024-05-09T06:58:16.594Z,76.65
2024-05-09T06:59:19.574Z,76.54
2024-05-09T07:00:30.926Z,76.28
2024-05-09T07:01:40.941Z,76.24
2024-05-09T07:02:43.662Z,75.90
2024-05-09T07:03:51.701Z,73.97
2024-05-09T07:04:54.654Z,73.61
2024-05-09T07:05:57.373Z,72.76
2024-05-09T07:07:04.360Z,71.92
2024-05-09T07:08:07.729Z,71.90
2024-05-09T07:09:10.379Z,70.53
2024-05-09T07:10:22.037Z,69.89
2024-05-09T07:11:31.513Z,70.58
2024-05-09T07:12:34.580Z,70.70
2024-05-09T07:13:40.093Z,70.37
2024-05-09T07:14:42.802Z,70.64
2024-05-09T07:15:45.536Z,70.08
2024-05-09T07:16:48.706Z,70.26
2024-05-09T07:17:54.133Z,70.01
2024-05-09T07:18:59.659Z,71.34
2024-05-09T07:20:02.528Z,70.19
2024-05-09T07:21:08.927Z,69.17
2024-05-09T07:22:11.592Z,69.81
2024-05-09T07:23:14.759Z,69.92
2024-05-09T07:24:20.430Z,69.78
2024-05-09T07:25:23.002Z,69.54
2024-05-09T07:26:25.731Z,69.43
2024-05-09T07:27:28.378Z,69.51
2024-05-09T07:28:33.650Z,69.44
2024-05-09T07:29:38.450Z,69.65
2024-05-09T07:30:41.526Z,70.47
2024-05-09T07:31:46.749Z,70.12
2024-05-09T07:32:49.634Z,69.16
2024-05-09T07:33:52.600Z,68.79
2024-05-09T07:34:57.909Z,68.99
2024-05-09T07:36:03.200Z,68.76
2024-05-09T07:37:11.080Z,67.16
2024-05-09T07:38:14.053Z,67.86
2024-05-09T07:39:16.729Z,66.83
2024-05-09T07:40:31.557Z,67.06
2024-05-09T07:41:38.219Z,67.39
2024-05-09T07:42:40.911Z,67.94
2024-05-09T07:43:46.622Z,68.79
2024-05-09T07:44:49.223Z,68.41
2024-05-09T07:45:54.464Z,67.87
2024-05-09T07:50:55.720Z,65.33
2024-05-09T07:53:16.931Z,63.34
2024-05-09T07:53:37.207Z,61.97
2024-05-09T07:54:35.297Z,61.92
2024-05-09T07:55:38.181Z,60.85
2024-05-09T07:56:41.044Z,61.57
2024-05-09T07:57:46.558Z,61.92
2024-05-09T07:58:50.794Z,61.93
2024-05-09T07:59:53.561Z,61.07
2024-05-09T08:00:56.433Z,60.69
2024-05-09T08:02:01.893Z,61.24
2024-05-09T08:03:05.116Z,61.93
2024-05-09T08:04:07.913Z,61.46
2024-05-09T08:05:13.285Z,61.48
2024-05-09T08:06:18.774Z,62.12
2024-05-09T08:07:22.089Z,62.47
2024-05-09T08:08:27.668Z,62.40
2024-05-09T08:09:30.269Z,62.54
2024-05-09T08:10:35.144Z,61.46
2024-05-09T08:11:37.895Z,60.86
2024-05-09T08:12:43.253Z,60.92
2024-05-09T08:13:45.859Z,60.65
2024-05-09T08:14:48.427Z,61.42
2024-05-09T08:15:54.076Z,60.66
2024-05-09T08:16:56.943Z,61.20
2024-05-09T08:18:00.171Z,61.25
2024-05-09T08:19:05.870Z,59.39
2024-05-09T08:20:09.848Z,60.05
2024-05-09T08:21:13.928Z,59.91
2024-05-09T08:22:21.783Z,60.38
2024-05-09T08:23:24.431Z,58.86
2024-05-09T08:24:27.479Z,56.84
2024-05-09T08:25:30.050Z,56.83
2024-05-09T08:26:35.322Z,58.02
2024-05-09T08:27:38.020Z,59.08
2024-05-09T08:28:40.655Z,60.87
2024-05-09T08:29:43.662Z,60.42
2024-05-09T08:30:49.107Z,60.21
2024-05-09T08:31:56.200Z,58.88
2024-05-09T08:32:59.104Z,59.48
2024-05-09T08:34:02.012Z,59.56
2024-05-09T08:35:07.949Z,61.30
2024-05-09T08:36:10.491Z,61.79
2024-05-09T08:37:19.699Z,60.84
2024-05-09T08:38:30.383Z,62.00
2024-05-09T08:39:33.162Z,61.81
2024-05-09T08:40:37.927Z,62.46
2024-05-09T08:41:43.371Z,62.19
2024-05-09T08:42:53.278Z,61.58
2024-05-09T08:43:55.918Z,61.09
2024-05-09T08:44:58.548Z,61.17
2024-05-09T08:46:02.767Z,61.11
2024-05-09T08:47:09.911Z,61.55
2024-05-09T08:48:14.969Z,61.82
2024-05-09T08:49:18.996Z,60.96
2024-05-09T08:50:32.327Z,61.89
2024-05-09T08:51:40.987Z,62.63
2024-05-09T08:52:43.776Z,63.61
2024-05-09T08:53:51.685Z,63.44
2024-05-09T08:54:54.873Z,62.32
2024-05-09T08:56:01.550Z,62.39
2024-05-09T08:57:05.698Z,60.95
2024-05-09T08:58:13.852Z,60.96
2024-05-09T08:59:21.419Z,61.24
2024-05-09T09:00:33.761Z,62.24
2024-05-09T09:01:44.512Z,61.01
2024-05-09T09:02:50.043Z,60.57
2024-05-09T09:03:53.672Z,59.08
2024-05-09T09:05:01.009Z,58.56
2024-05-09T09:06:10.123Z,57.46
2024-05-09T09:07:13.470Z,55.02
2024-05-09T09:08:17.180Z,53.23
2024-05-09T09:09:22.479Z,54.88
2024-05-09T09:10:32.071Z,54.40
2024-05-09T09:11:35.854Z,55.19
2024-05-09T09:12:38.653Z,55.46
2024-05-09T09:13:41.322Z,54.83
2024-05-09T09:14:46.708Z,54.61
2024-05-09T09:15:50.312Z,54.22
2024-05-09T09:16:54.200Z,53.81
2024-05-09T09:17:57.832Z,53.17
2024-05-09T09:19:03.537Z,53.25
2024-05-09T09:20:13.967Z,53.46
2024-05-09T09:21:19.029Z,53.23
2024-05-09T09:22:24.363Z,51.88
2024-05-09T09:23:30.224Z,52.80
2024-05-09T09:24:35.783Z,53.05
2024-05-09T09:25:40.066Z,51.85
2024-05-09T09:26:48.058Z,51.57
2024-05-09T09:27:50.833Z,50.21
2024-05-09T09:28:53.521Z,48.72
2024-05-09T09:29:59.929Z,48.02
2024-05-09T09:31:03.211Z,48.35
2024-05-09T09:32:08.581Z,47.94
2024-05-09T09:33:12.193Z,47.20
2024-05-09T09:34:17.794Z,46.35
2024-05-09T09:35:20.595Z,46.49
2024-05-09T09:36:23.159Z,45.63
2024-05-09T09:37:29.853Z,44.54
2024-05-09T09:38:32.592Z,46.14
2024-05-09T09:39:48.961Z,44.54
2024-05-09T09:40:52.230Z,44.55
2024-05-09T09:41:56.862Z,43.93
2024-05-09T09:43:04.707Z,44.97
2024-05-09T09:44:09.648Z,45.08
2024-05-09T09:45:13.994Z,44.81
2024-05-09T09:46:18.787Z,45.04
2024-05-09T09:47:24.902Z,45.02
2024-05-09T09:48:28.497Z,45.25
2024-05-09T09:49:33.767Z,44.77
2024-05-09T09:50:36.790Z,45.86
2024-05-09T09:51:43.742Z,47.40
2024-05-09T09:52:47.149Z,46.63
2024-05-09T09:53:53.110Z,47.06
2024-05-09T09:54:59.910Z,47.13
2024-05-09T09:56:06.383Z,47.02
2024-05-09T09:57:09.170Z,47.19
2024-05-09T09:58:14.387Z,47.16
2024-05-09T09:59:20.350Z,46.74
2024-05-09T10:00:29.960Z,47.17
2024-05-09T10:01:36.445Z,47.38
2024-05-09T10:02:40.357Z,46.72
2024-05-09T10:03:46.061Z,46.57
2024-05-09T10:04:49.092Z,46.31
2024-05-09T10:05:52.612Z,45.29
2024-05-09T10:07:08.365Z,44.49
2024-05-09T10:08:14.858Z,43.85
2024-05-09T10:09:18.314Z,43.18
2024-05-09T10:10:32.032Z,44.12
2024-05-09T10:11:42.075Z,44.91
2024-05-09T10:13:01.693Z,43.92
2024-05-09T10:14:04.411Z,42.75
2024-05-09T10:15:09.147Z,43.14
2024-05-09T10:16:15.038Z,43.64
2024-05-09T10:17:18.158Z,43.64
2024-05-09T10:18:27.121Z,43.85
2024-05-09T10:19:35.357Z,44.38
2024-05-09T10:20:42.406Z,45.87
2024-05-09T10:21:47.298Z,45.06
2024-05-09T10:22:53.087Z,43.25
2024-05-09T10:23:59.855Z,43.34
2024-05-09T10:25:06.965Z,43.50
2024-05-09T10:26:12.218Z,42.15
2024-05-09T10:27:17.647Z,41.85
2024-05-09T10:28:21.023Z,42.52
2024-05-09T10:29:26.348Z,42.17
2024-05-09T10:30:36.085Z,43.19
2024-05-09T10:31:42.441Z,43.65
2024-05-09T10:32:45.612Z,43.03
2024-05-09T10:33:50.206Z,42.28
2024-05-09T10:35:03.375Z,41.61
2024-05-09T10:36:12.070Z,41.14
2024-05-09T10:37:15.184Z,41.96
2024-05-09T10:38:18.710Z,43.16
2024-05-09T10:39:24.636Z,41.26
2024-05-09T10:40:31.351Z,40.98
2024-05-09T10:41:38.581Z,41.11
2024-05-09T10:42:44.468Z,42.37
2024-05-09T10:43:47.732Z,42.15
2024-05-09T10:44:50.407Z,42.09
2024-05-09T10:45:53.109Z,43.45
2024-05-09T10:46:58.599Z,43.39
2024-05-09T10:48:01.488Z,42.10
2024-05-09T10:49:07.243Z,41.05
2024-05-09T10:50:18.528Z,40.20
2024-05-09T10:51:31.061Z,40.33
2024-05-09T10:52:35.320Z,38.54
2024-05-09T10:53:42.370Z,39.15
2024-05-09T10:54:49.010Z,38.69
2024-05-09T10:56:00.506Z,39.76
2024-05-09T10:57:06.500Z,39.56
2024-05-09T10:58:18.484Z,41.77
2024-05-09T10:59:23.706Z,42.82
2024-05-09T11:00:35.740Z,43.47
2024-05-09T11:01:40.268Z,42.87
2024-05-09T11:02:44.180Z,41.49
2024-05-09T11:03:50.562Z,41.77
2024-05-09T11:04:53.618Z,40.91
2024-05-09T11:05:56.726Z,42.73
2024-05-09T11:07:02.827Z,42.72
2024-05-09T11:08:09.674Z,42.69
2024-05-09T11:09:12.596Z,42.72
2024-05-09T11:10:21.005Z,41.89
2024-05-09T11:11:32.895Z,41.72
2024-05-09T11:12:38.625Z,42.05
2024-05-09T11:13:41.690Z,40.07
2024-05-09T11:14:56.085Z,39.89
2024-05-09T11:16:00.190Z,38.44
2024-05-09T11:17:06.123Z,39.62
2024-05-09T11:18:23.616Z,39.30
2024-05-09T11:19:33.597Z,38.19
2024-05-09T11:20:36.778Z,37.57
2024-05-09T11:21:40.006Z,37.75
2024-05-09T11:22:46.517Z,37.54
2024-05-09T11:23:49.698Z,38.03
2024-05-09T11:24:52.624Z,38.13
2024-05-09T11:25:56.967Z,38.00
2024-05-09T11:27:02.938Z,36.74
2024-05-09T11:28:08.452Z,36.54
2024-05-09T11:29:11.110Z,37.30
2024-05-09T11:30:26.741Z,38.00
2024-05-09T11:31:47.791Z,37.56
2024-05-09T11:32:50.709Z,37.22
2024-05-09T11:33:55.078Z,37.22
2024-05-09T11:34:57.801Z,36.32
2024-05-09T11:36:03.072Z,37.40
2024-05-09T11:37:05.915Z,38.02
2024-05-09T11:38:08.614Z,36.10
2024-05-09T11:39:11.758Z,36.57
2024-05-09T11:40:24.845Z,36.26
2024-05-09T11:41:31.456Z,36.49
2024-05-09T11:42:34.111Z,35.00
2024-05-09T11:43:39.325Z,34.90
2024-05-09T11:44:44.516Z,36.58
2024-05-09T11:45:47.225Z,37.00
2024-05-09T11:46:49.930Z,36.66
2024-05-09T11:47:53.268Z,37.18
2024-05-09T11:48:58.749Z,37.15
2024-05-09T11:50:01.679Z,36.69
2024-05-09T11:51:04.778Z,37.93
2024-05-09T11:52:10.367Z,36.93
2024-05-09T11:53:13.226Z,35.97
2024-05-09T11:54:16.532Z,35.02
2024-05-09T11:55:26.728Z,34.63
2024-05-09T11:56:30.465Z,36.50
2024-05-09T11:57:33.312Z,38.01
2024-05-09T11:58:39.423Z,36.86
2024-05-09T11:59:47.270Z,35.44
2024-05-09T12:00:50.149Z,34.75
2024-05-09T12:01:53.028Z,34.82
2024-05-09T12:02:58.881Z,35.14
2024-05-09T12:04:04.344Z,33.92
2024-05-09T12:05:07.453Z,33.38
2024-05-09T12:06:10.229Z,33.09
2024-05-09T12:07:13.159Z,31.81
2024-05-09T12:08:18.467Z,31.64
2024-05-09T12:09:21.126Z,32.73
2024-05-09T12:11:28.634Z,34.06
2024-05-09T12:12:36.720Z,32.41
2024-05-09T12:13:39.879Z,31.41
2024-05-09T12:14:45.164Z,29.99
2024-05-09T12:15:47.826Z,29.52
2024-05-09T12:16:53.214Z,29.04
2024-05-09T12:17:58.387Z,28.19
2024-05-09T12:19:03.097Z,27.33
2024-05-09T12:20:11.346Z,26.23
2024-05-09T12:21:22.434Z,26.80
2024-05-09T12:22:25.138Z,25.78
2024-05-09T12:23:27.934Z,27.88
2024-05-09T12:24:30.883Z,28.00
2024-05-09T12:25:36.204Z,29.81
2024-05-09T12:26:38.833Z,30.33
2024-05-09T12:27:41.521Z,31.21
2024-05-09T12:28:44.236Z,32.56
2024-05-09T12:29:52.161Z,32.54
2024-05-09T12:30:54.830Z,34.04
2024-05-09T12:31:58.168Z,33.50
2024-05-09T12:33:01.826Z,32.96
2024-05-09T12:34:07.863Z,32.20
2024-05-09T12:35:10.563Z,29.36
2024-05-09T12:36:13.391Z,28.15
2024-05-09T12:37:16.242Z,29.79
2024-05-09T12:38:21.912Z,30.63
2024-05-09T12:39:24.558Z,30.67
2024-05-09T12:40:35.404Z,30.27
2024-05-09T12:41:43.337Z,30.03
2024-05-09T12:42:45.954Z,29.16
2024-05-09T12:43:49.661Z,28.49
2024-05-09T12:44:57.508Z,29.76
2024-05-09T12:46:00.217Z,30.09
2024-05-09T12:47:03.028Z,31.19
2024-05-09T12:48:08.499Z,28.89
2024-05-09T12:49:16.385Z,28.61
2024-05-09T12:50:29.157Z,29.48
2024-05-09T12:51:34.782Z,27.50
2024-05-09T12:52:37.380Z,28.13
2024-05-09T12:53:42.719Z,25.82
2024-05-09T12:54:45.381Z,24.64
2024-05-09T12:55:53.989Z,23.86
2024-05-09T12:57:02.382Z,23.49
2024-05-09T12:58:08.849Z,25.39
2024-05-09T12:59:11.695Z,25.12
2024-05-09T13:00:23.980Z,25.10
2024-05-09T13:01:36.398Z,26.45
2024-05-09T13:02:39.152Z,26.17
2024-05-09T13:03:42.039Z,24.44
2024-05-09T13:04:44.930Z,25.67
2024-05-09T13:05:50.533Z,24.51
2024-05-09T13:06:53.681Z,23.13
2024-05-09T13:07:57.153Z,23.56
2024-05-09T13:09:00.103Z,23.17
2024-05-09T13:10:06.982Z,22.68
2024-05-09T13:11:14.346Z,22.17
2024-05-09T13:12:16.948Z,23.76
2024-05-09T13:13:19.829Z,23.11
2024-05-09T13:14:25.272Z,24.09
2024-05-09T13:15:31.145Z,26.42
2024-05-09T13:16:34.229Z,26.43
2024-05-09T13:17:37.005Z,26.32
2024-05-09T13:18:42.393Z,27.32
2024-05-09T13:19:45.010Z,25.80
2024-05-09T13:20:47.651Z,24.85
2024-05-09T13:21:53.031Z,25.12
2024-05-09T13:22:55.794Z,23.90
2024-05-09T13:24:00.015Z,23.74
2024-05-09T13:25:03.120Z,24.18
2024-05-09T13:26:08.502Z,23.49
2024-05-09T13:27:11.236Z,22.57
2024-05-09T13:28:14.060Z,24.61
2024-05-09T13:29:16.684Z,25.50
2024-05-09T13:30:29.489Z,24.13
2024-05-09T13:31:43.683Z,22.37
2024-05-09T13:32:46.429Z,21.26
2024-05-09T13:33:51.853Z,21.55
2024-05-09T13:34:54.611Z,20.72
2024-05-09T13:35:57.379Z,20.99
2024-05-09T13:37:00.068Z,22.01
2024-05-09T13:38:05.543Z,23.99
2024-05-09T13:39:08.173Z,23.01
2024-05-09T13:40:14.221Z,22.80
2024-05-09T13:41:17.828Z,21.57
2024-05-09T13:42:23.261Z,22.04
2024-05-09T13:43:26.228Z,21.77
2024-05-09T13:44:28.833Z,21.52
2024-05-09T13:45:31.543Z,22.37
2024-05-09T13:46:37.196Z,22.61
2024-05-09T13:47:42.730Z,21.27
2024-05-09T13:48:45.642Z,20.43
2024-05-09T13:49:48.904Z,19.51
2024-05-09T13:50:54.656Z,18.98
2024-05-09T13:51:57.413Z,17.84
2024-05-09T13:53:00.049Z,17.18
2024-05-09T13:54:05.314Z,18.89
2024-05-09T13:55:08.403Z,18.89
2024-05-09T13:56:11.979Z,19.35
2024-05-09T13:57:17.917Z,17.14
2024-05-09T13:58:20.769Z,16.08
2024-05-09T13:59:23.418Z,15.74
2024-05-09T14:00:38.183Z,17.12
2024-05-09T14:01:50.096Z,20.98
2024-05-09T14:02:55.549Z,21.89
2024-05-09T14:03:58.478Z,22.43